createdAt,value
2018-04-07T00:02:11.386Z,59.90
2018-04-07T00:04:38.830Z,60.40
2018-04-07T00:07:07.035Z,60.30
2018-04-07T00:09:34.458Z,60.20
2018-04-07T00:12:02.677Z,60.50
2018-04-07T00:14:30.112Z,60.50
2018-04-07T00:16:57.539Z,60.60
2018-04-07T00:19:25.738Z,60.40
2018-04-07T00:21:53.165Z,60.30
2018-04-07T00:24:21.357Z,60.70
2018-04-07T00:26:48.796Z,60.60
2018-04-07T00:29:16.977Z,60.50
2018-04-07T00:31:45.184Z,61.20
2018-04-07T00:34:12.621Z,61.10
2018-04-07T00:36:40.114Z,61.40
2018-04-07T00:39:07.554Z,61.50
2018-04-07T00:41:34.981Z,61.00
2018-04-07T00:44:03.174Z,61.50
2018-04-07T00:46:30.658Z,61.40
2018-04-07T00:48:58.082Z,61.40
2018-04-07T00:51:25.521Z,61.60
2018-04-07T00:53:53.734Z,61.90
2018-04-07T00:56:21.162Z,61.90
2018-04-07T00:58:48.766Z,61.90
2018-04-07T01:01:16.187Z,62.20
2018-04-07T01:03:43.614Z,62.20
2018-04-07T01:06:11.047Z,62.40
2018-04-07T01:08:38.470Z,62.60
2018-04-07T01:11:05.909Z,62.40
2018-04-07T01:13:33.355Z,62.40
2018-04-07T01:16:01.566Z,63.10
2018-04-07T01:18:28.994Z,62.90
2018-04-07T01:20:56.438Z,63.00
2018-04-07T01:23:24.617Z,63.20
2018-04-07T01:25:52.113Z,63.00
2018-04-07T01:28:19.557Z,63.20
2018-04-07T01:30:47.002Z,63.40
2018-04-07T01:33:14.430Z,63.70
2018-04-07T01:35:42.884Z,64.10
2018-04-07T01:38:11.816Z,63.80
2018-04-07T01:40:40.001Z,63.80
2018-04-07T01:43:07.442Z,63.70
2018-04-07T01:45:35.969Z,63.90
2018-04-07T01:48:03.407Z,63.90
2018-04-07T01:50:30.834Z,63.60
2018-04-07T01:52:59.046Z,63.80
2018-04-07T01:55:26.479Z,63.70
2018-04-07T01:57:53.919Z,63.90
2018-04-07T02:00:22.116Z,63.90
2018-04-07T02:02:49.902Z,63.90
2018-04-07T02:05:17.333Z,64.00
2018-04-07T02:07:44.763Z,64.30
2018-04-07T02:10:12.961Z,64.10
2018-04-07T02:12:40.401Z,64.00
2018-04-07T02:15:08.589Z,64.60
2018-04-07T02:17:36.027Z,64.50
2018-04-07T02:20:04.223Z,64.20
2018-04-07T02:22:31.666Z,64.10
2018-04-07T02:24:59.854Z,64.00
2018-04-07T02:27:27.654Z,64.00
2018-04-07T02:29:55.087Z,64.30
2018-04-07T02:32:22.518Z,64.40
2018-04-07T02:34:49.974Z,64.70
2018-04-07T02:37:18.165Z,64.90
2018-04-07T02:39:45.610Z,65.60
2018-04-07T02:42:13.046Z,65.00
2018-04-07T02:44:41.248Z,65.40
2018-04-07T02:47:09.046Z,65.30
2018-04-07T02:49:36.474Z,65.10
2018-04-07T02:52:03.906Z,65.40
2018-04-07T02:54:32.103Z,65.80
2018-04-07T02:56:59.542Z,65.80
2018-04-07T02:59:27.742Z,65.40
2018-04-07T03:01:55.707Z,65.30
2018-04-07T03:04:23.140Z,65.40
2018-04-07T03:06:51.330Z,65.40
2018-04-07T03:09:18.778Z,65.30
2018-04-07T03:11:46.235Z,65.40
2018-04-07T03:14:13.668Z,65.40
2018-04-07T03:16:41.113Z,65.40
2018-04-07T03:19:08.541Z,65.50
2018-04-07T03:21:35.986Z,65.40
2018-04-07T03:24:03.434Z,65.30
2018-04-07T03:26:30.862Z,65.60
2018-04-07T03:28:59.070Z,66.00
2018-04-07T03:31:26.504Z,65.90
2018-04-07T03:33:54.942Z,65.80
2018-04-07T03:36:22.377Z,65.80
2018-04-07T03:38:49.810Z,65.80
2018-04-07T03:41:17.254Z,65.70
2018-04-07T03:43:44.692Z,65.70
2018-04-07T03:46:13.253Z,65.60
2018-04-07T03:48:40.668Z,65.50
2018-04-07T03:51:08.099Z,65.60
2018-04-07T03:53:36.302Z,66.00
2018-04-07T03:56:03.754Z,65.90
2018-04-07T03:58:31.186Z,66.10
2018-04-07T04:03:29.779Z,66.20
2018-04-07T04:05:57.985Z,66.40
2018-04-07T04:08:25.410Z,66.30
2018-04-07T04:10:53.616Z,66.20
2018-04-07T04:13:21.058Z,66.00
2018-04-07T04:15:48.506Z,66.40
2018-04-07T04:18:17.032Z,66.50
2018-04-07T04:20:44.463Z,66.40
2018-04-07T04:23:11.881Z,66.50
2018-04-07T04:25:40.421Z,66.60
2018-04-07T04:28:07.870Z,66.50
2018-04-07T04:30:35.312Z,66.60
2018-04-07T04:33:02.746Z,66.40
2018-04-07T04:35:31.053Z,66.50
2018-04-07T04:37:58.469Z,66.50
2018-04-07T04:40:26.690Z,66.80
2018-04-07T04:42:54.125Z,66.70
2018-04-07T04:45:21.571Z,66.90
2018-04-07T04:47:49.006Z,67.00
2018-04-07T04:50:17.269Z,68.00
2018-04-07T04:52:44.681Z,67.30
2018-04-07T04:55:12.142Z,67.20
2018-04-07T04:57:39.571Z,67.20
2018-04-07T05:00:06.998Z,67.20
2018-04-07T05:02:34.621Z,67.30
2018-04-07T05:05:02.066Z,67.00
2018-04-07T05:07:29.489Z,67.60
2018-04-07T05:09:57.698Z,67.60
2018-04-07T05:12:25.174Z,67.40
2018-04-07T05:14:52.597Z,67.40
2018-04-07T05:17:20.033Z,67.20
2018-04-07T05:19:48.247Z,67.50
2018-04-07T05:22:15.689Z,67.40
2018-04-07T05:24:43.478Z,67.20
2018-04-07T05:27:10.907Z,67.50
2018-04-07T05:29:38.337Z,67.50
2018-04-07T05:32:06.549Z,67.70
2018-04-07T05:34:33.983Z,67.50
2018-04-07T05:37:01.427Z,67.50
2018-04-07T05:39:28.858Z,67.20
2018-04-07T05:41:56.307Z,68.10
2018-04-07T05:44:23.755Z,67.30
2018-04-07T05:46:51.211Z,67.50
2018-04-07T05:49:18.671Z,67.10
2018-04-07T05:51:46.099Z,67.10
2018-04-07T05:54:13.524Z,67.00
2018-04-07T05:56:41.721Z,66.90
2018-04-07T05:59:09.160Z,66.80
2018-04-07T06:01:37.356Z,66.50
2018-04-07T06:04:04.779Z,66.40
2018-04-07T06:06:32.997Z,66.80
2018-04-07T06:09:00.450Z,66.70
2018-04-07T06:11:27.878Z,66.20
2018-04-07T06:13:56.096Z,65.80
2018-04-07T06:16:23.546Z,65.60
2018-04-07T06:18:50.999Z,65.70
2018-04-07T06:21:18.457Z,65.50
2018-04-07T06:23:45.907Z,65.20
2018-04-07T06:26:13.331Z,65.00
2018-04-07T06:28:41.561Z,64.40
2018-04-07T06:31:09.139Z,64.30
2018-04-07T06:33:36.575Z,64.40
2018-04-07T06:36:04.033Z,64.30
2018-04-07T06:38:31.471Z,64.40
2018-04-07T06:40:58.924Z,64.20
2018-04-07T06:43:26.341Z,63.40
2018-04-07T06:45:54.554Z,63.50
2018-04-07T06:48:22.027Z,63.30
2018-04-07T06:50:49.468Z,63.30
2018-04-07T06:53:16.912Z,62.50
2018-04-07T06:55:44.335Z,62.00
2018-04-07T06:58:12.542Z,61.00
2018-04-07T07:00:39.998Z,60.90
2018-04-07T07:03:08.307Z,62.30
2018-04-07T07:05:35.753Z,62.30
2018-04-07T07:08:03.174Z,60.60
2018-04-07T07:10:30.623Z,61.50
2018-04-07T07:12:58.814Z,60.70
2018-04-07T07:15:26.238Z,60.70
2018-04-07T07:17:53.688Z,59.00
2018-04-07T07:20:21.891Z,57.40
2018-04-07T07:22:50.090Z,57.30
2018-04-07T07:25:17.545Z,57.30
2018-04-07T07:27:44.990Z,55.00
2018-04-07T07:30:12.442Z,55.90
2018-04-07T07:32:39.874Z,55.40
2018-04-07T07:35:08.069Z,52.60
2018-04-07T07:37:35.514Z,52.00
2018-04-07T07:40:03.731Z,51.60
2018-04-07T07:42:31.299Z,51.50
2018-04-07T07:44:58.737Z,50.70
2018-04-07T07:47:26.180Z,49.70
2018-04-07T07:49:54.595Z,51.10
2018-04-07T07:52:22.799Z,49.60
2018-04-07T07:54:51.006Z,49.30
2018-04-07T07:57:18.813Z,49.20
2018-04-07T07:59:46.255Z,46.20
2018-04-07T08:02:13.682Z,46.40
2018-04-07T08:04:41.129Z,47.30
2018-04-07T08:07:09.327Z,45.50
2018-04-07T08:09:36.788Z,45.40
2018-04-07T08:12:04.226Z,44.30
2018-04-07T08:14:31.666Z,43.30
2018-04-07T08:16:59.874Z,41.10
2018-04-07T08:19:27.305Z,41.00
2018-04-07T08:21:55.503Z,41.50
2018-04-07T08:24:23.295Z,41.50
2018-04-07T08:26:50.722Z,39.20
2018-04-07T08:29:18.167Z,39.90
2018-04-07T08:31:45.613Z,38.70
2018-04-07T08:34:13.802Z,39.70
2018-04-07T08:36:41.268Z,39.60
2018-04-07T08:39:08.699Z,38.60
2018-04-07T08:41:36.906Z,35.90
2018-04-07T08:44:04.338Z,35.90
2018-04-07T08:46:31.792Z,36.00
2018-04-07T08:48:59.998Z,36.80
2018-04-07T08:51:27.647Z,36.70
2018-04-07T08:53:55.090Z,34.70
2018-04-07T08:56:22.530Z,34.40
2018-04-07T08:58:50.731Z,34.70
2018-04-07T09:01:18.194Z,34.70
2018-04-07T09:03:45.689Z,34.30
2018-04-07T09:06:13.075Z,31.40
2018-04-07T09:08:41.279Z,30.70
2018-04-07T09:11:08.711Z,30.60
2018-04-07T09:13:36.175Z,33.10
2018-04-07T09:16:03.659Z,30.50
2018-04-07T09:18:31.111Z,30.50
2018-04-07T09:20:58.534Z,30.50
2018-04-07T09:23:26.244Z,31.20
2018-04-07T09:25:53.691Z,30.20
2018-04-07T09:28:21.107Z,30.00
2018-04-07T09:30:49.317Z,30.30
2018-04-07T09:33:16.745Z,30.30
2018-04-07T09:35:44.186Z,29.50
2018-04-07T09:38:12.400Z,27.70
2018-04-07T09:40:39.829Z,27.70
2018-04-07T09:43:07.263Z,28.60
2018-04-07T09:45:35.468Z,27.30
2018-04-07T09:48:02.926Z,27.20
2018-04-07T09:50:30.355Z,27.10
2018-04-07T09:52:58.557Z,28.20
2018-04-07T09:55:26.010Z,28.10
2018-04-07T09:57:53.466Z,28.30
2018-04-07T10:00:20.917Z,27.40
2018-04-07T10:02:48.351Z,28.50
2018-04-07T10:05:16.807Z,26.10
2018-04-07T10:07:44.230Z,26.50
2018-04-07T10:10:11.659Z,26.40
2018-04-07T10:12:39.865Z,26.20
2018-04-07T10:15:07.318Z,26.20
2018-04-07T10:17:35.101Z,26.50
2018-04-07T10:20:02.537Z,26.30
2018-04-07T10:22:30.006Z,25.80
2018-04-07T10:24:57.452Z,27.40
2018-04-07T10:27:24.881Z,26.60
2018-04-07T10:29:53.091Z,26.70
2018-04-07T10:32:20.592Z,26.60
2018-04-07T10:34:48.806Z,26.20
2018-04-07T10:37:16.246Z,26.10
2018-04-07T10:39:43.732Z,25.10
2018-04-07T10:42:11.166Z,25.30
2018-04-07T10:44:38.595Z,25.30
2018-04-07T10:47:06.821Z,26.10
2018-04-07T10:49:34.253Z,26.40
2018-04-07T10:52:01.693Z,27.30
2018-04-07T10:54:29.922Z,25.90
2018-04-07T10:56:57.354Z,25.90
2018-04-07T10:59:24.794Z,27.10
2018-04-07T11:01:52.243Z,25.00
2018-04-07T11:04:20.447Z,25.50
2018-04-07T11:06:47.900Z,25.50
2018-04-07T11:09:15.331Z,24.30
2018-04-07T11:11:43.763Z,26.10
2018-04-07T11:14:11.222Z,26.10
2018-04-07T11:16:38.663Z,26.90
2018-04-07T11:19:06.142Z,26.00
2018-04-07T11:21:33.583Z,25.50
2018-04-07T11:24:01.027Z,24.80
2018-04-07T11:26:28.458Z,24.20
2018-04-07T11:28:55.935Z,25.00
2018-04-07T11:31:24.120Z,22.80
2018-04-07T11:33:51.578Z,22.80
2018-04-07T11:36:19.354Z,24.40
2018-04-07T11:38:46.785Z,25.70
2018-04-07T11:41:14.878Z,26.40
2018-04-07T11:43:42.337Z,26.50
2018-04-07T11:46:09.770Z,25.50
2018-04-07T11:48:37.204Z,25.50
2018-04-07T11:51:04.653Z,26.80
2018-04-07T11:53:32.868Z,28.50
2018-04-07T11:56:00.376Z,28.40
2018-04-07T11:58:28.576Z,30.10
2018-04-07T12:00:56.025Z,30.10
2018-04-07T12:03:23.451Z,30.10
2018-04-07T12:05:50.904Z,31.00
2018-04-07T12:08:18.337Z,31.90
2018-04-07T12:10:45.773Z,33.20
2018-04-07T12:13:13.979Z,33.40
2018-04-07T12:15:41.413Z,33.30
2018-04-07T12:18:08.857Z,31.80
2018-04-07T12:20:36.302Z,31.70
2018-04-07T12:23:03.739Z,33.70
2018-04-07T12:25:31.952Z,33.50
2018-04-07T12:27:59.405Z,33.40
2018-04-07T12:30:27.210Z,32.50
2018-04-07T12:32:54.626Z,34.50
2018-04-07T12:35:22.068Z,33.60
2018-04-07T12:37:49.498Z,33.70
2018-04-07T12:40:17.720Z,33.60
2018-04-07T12:42:45.176Z,33.50
2018-04-07T12:45:12.623Z,34.00
2018-04-07T12:47:40.055Z,33.30
2018-04-07T12:50:08.281Z,32.50
2018-04-07T12:52:35.731Z,32.50
2018-04-07T12:55:03.199Z,33.40
2018-04-07T12:57:30.630Z,35.00
2018-04-07T12:59:58.060Z,34.10
2018-04-07T13:02:25.502Z,34.20
2018-04-07T13:04:53.752Z,33.40
2018-04-07T13:07:21.191Z,33.30
2018-04-07T13:09:48.955Z,33.70
2018-04-07T13:12:16.384Z,35.10
2018-04-07T13:14:43.828Z,35.30
2018-04-07T13:17:12.027Z,34.90
2018-04-07T13:19:39.462Z,34.90
2018-04-07T13:22:06.905Z,33.90
2018-04-07T13:24:34.353Z,36.10
2018-04-07T13:27:02.574Z,36.70
2018-04-07T13:29:30.000Z,36.70
2018-04-07T13:31:57.430Z,35.40
2018-04-07T13:34:25.651Z,36.70
2018-04-07T13:36:53.105Z,36.70
2018-04-07T13:39:20.525Z,37.30
2018-04-07T13:41:48.747Z,35.90
2018-04-07T13:44:16.193Z,35.90
2018-04-07T13:46:43.631Z,37.50
2018-04-07T13:49:11.065Z,38.70
2018-04-07T13:51:39.285Z,39.60
2018-04-07T13:54:06.735Z,39.60
2018-04-07T13:56:34.172Z,37.90
2018-04-07T13:59:01.614Z,37.10
2018-04-07T14:01:29.808Z,39.40
2018-04-07T14:03:57.259Z,39.30
2018-04-07T14:06:24.690Z,39.70
2018-04-07T14:08:52.938Z,41.70
2018-04-07T14:11:20.365Z,41.60
2018-04-07T14:13:47.805Z,39.60
2018-04-07T15:38:12.379Z,38.90
2018-04-07T15:40:39.806Z,39.00
2018-04-07T15:43:07.260Z,37.90
2018-04-07T15:45:34.688Z,38.80
2018-04-07T15:48:02.902Z,36.90
2018-04-07T15:50:30.340Z,36.90
2018-04-07T15:52:57.797Z,38.00
2018-04-07T15:55:25.219Z,37.40
2018-04-07T15:57:53.434Z,37.80
2018-04-07T16:00:20.891Z,37.80
2018-04-07T16:02:48.335Z,36.60
2018-04-07T16:05:15.802Z,35.90
2018-04-07T16:07:43.228Z,37.50
2018-04-07T16:10:11.442Z,36.80
2018-04-07T16:12:38.903Z,36.70
2018-04-07T16:15:06.346Z,35.70
2018-04-07T16:17:33.797Z,35.80
2018-04-07T16:20:01.231Z,35.90
2018-04-07T16:22:29.431Z,35.90
2018-04-07T16:24:56.996Z,35.80
2018-04-07T16:27:24.434Z,36.20
2018-04-07T16:29:51.880Z,36.00
2018-04-07T16:32:20.090Z,36.30
2018-04-07T16:34:47.540Z,36.20
2018-04-07T16:37:14.966Z,35.80
2018-04-07T16:39:43.187Z,35.70
2018-04-07T16:42:10.634Z,35.60
2018-04-07T16:44:38.130Z,35.50
2018-04-07T16:47:05.571Z,35.70
2018-04-07T16:49:33.014Z,35.20
2018-04-07T16:52:00.467Z,35.20
2018-04-07T16:54:27.897Z,35.60
2018-04-07T16:56:55.353Z,33.50
2018-04-07T16:59:22.790Z,33.30
2018-04-07T17:01:50.993Z,33.20
2018-04-07T17:04:18.449Z,33.20
2018-04-07T17:06:45.890Z,32.90
2018-04-07T17:09:13.326Z,33.90
2018-04-07T17:11:41.538Z,34.50
2018-04-07T17:14:08.966Z,34.50
2018-04-07T17:16:37.212Z,34.40
2018-04-07T17:19:04.657Z,34.30
2018-04-07T17:21:32.299Z,34.20
2018-04-07T17:23:59.759Z,34.50
2018-04-07T17:26:27.256Z,34.00
2018-04-07T17:28:54.691Z,33.90
2018-04-07T17:31:22.119Z,33.70
2018-04-07T17:33:49.546Z,34.00
2018-04-07T17:36:16.987Z,34.10
2018-04-07T17:38:45.200Z,34.80
2018-04-07T17:41:13.651Z,34.80
2018-04-07T17:43:41.849Z,35.80
2018-04-07T17:46:09.277Z,35.80
2018-04-07T17:48:37.502Z,37.20
2018-04-07T17:51:04.951Z,37.20
2018-04-07T17:53:32.536Z,36.50
2018-04-07T17:55:59.977Z,36.60
2018-04-07T17:58:27.437Z,37.20
2018-04-07T18:00:54.875Z,37.60
2018-04-07T18:03:22.354Z,38.50
2018-04-07T18:05:49.792Z,37.90
2018-04-07T18:08:17.225Z,38.40
2018-04-07T18:10:44.678Z,38.40
2018-04-07T18:13:12.128Z,38.50
2018-04-07T18:15:39.554Z,39.10
2018-04-07T18:18:07.010Z,40.10
2018-04-07T18:20:34.459Z,40.00
2018-04-07T18:23:01.907Z,40.10
2018-04-07T18:25:29.348Z,39.90
2018-04-07T18:27:56.811Z,40.70
2018-04-07T18:30:25.040Z,40.90
2018-04-07T18:32:53.240Z,40.40
2018-04-07T18:35:20.674Z,40.40
2018-04-07T18:37:48.117Z,41.00
2018-04-07T18:40:16.358Z,41.50
2018-04-07T18:42:43.826Z,41.40
2018-04-07T18:45:12.267Z,41.70
2018-04-07T18:47:39.707Z,42.30
2018-04-07T18:50:07.221Z,42.50
2018-04-07T18:52:35.426Z,42.90
2018-04-07T18:55:03.650Z,43.50
2018-04-07T18:57:31.115Z,43.50
2018-04-07T18:59:58.562Z,43.10
2018-04-07T19:02:25.997Z,43.70
2018-04-07T19:04:53.455Z,43.60
2018-04-07T19:07:20.893Z,44.20
2018-04-07T19:09:48.417Z,44.00
2018-04-07T19:12:15.938Z,44.60
2018-04-07T19:14:43.380Z,43.90
2018-04-07T19:17:10.815Z,44.20
2018-04-07T19:19:39.036Z,44.40
2018-04-07T19:22:06.468Z,44.40
2018-04-07T19:24:33.953Z,44.20
2018-04-07T19:27:01.422Z,44.10
2018-04-07T19:29:28.920Z,45.00
2018-04-07T19:31:57.225Z,44.80
2018-04-07T19:34:24.663Z,44.80
2018-04-07T19:36:52.097Z,45.60
2018-04-07T19:39:20.579Z,45.30
2018-04-07T19:41:47.994Z,45.30
2018-04-07T19:44:15.430Z,45.60
2018-04-07T19:46:42.870Z,45.50
2018-04-07T19:49:10.319Z,45.80
2018-04-07T19:51:37.766Z,45.70
2018-04-07T19:54:06.302Z,46.10
2018-04-07T19:56:34.570Z,46.20
2018-04-07T19:59:02.124Z,46.20
2018-04-07T20:01:29.704Z,46.50
2018-04-07T20:03:57.142Z,46.70
2018-04-07T20:06:24.909Z,46.70
2018-04-07T20:08:52.353Z,46.80
2018-04-07T20:11:19.917Z,46.70
2018-04-07T20:13:47.494Z,46.60
2018-04-07T20:16:14.941Z,46.90
2018-04-07T20:18:42.382Z,47.30
2018-04-07T20:21:09.825Z,47.50
2018-04-07T20:23:37.272Z,47.60
2018-04-07T20:26:04.713Z,47.70
2018-04-07T20:28:32.938Z,48.00
2018-04-07T20:31:00.376Z,48.00
2018-04-07T20:33:27.829Z,47.90
2018-04-07T20:35:55.395Z,48.10
2018-04-07T20:38:22.852Z,48.60
2018-04-07T20:40:57.054Z,48.60
2018-04-07T20:43:24.528Z,48.60
2018-04-07T20:45:51.974Z,48.70
2018-04-07T20:48:19.413Z,48.70
2018-04-07T20:50:47.009Z,49.00
2018-04-07T20:53:14.454Z,49.20
2018-04-07T20:55:41.914Z,49.10
2018-04-07T20:58:09.366Z,49.50
2018-04-07T21:00:37.053Z,49.70
2018-04-07T21:03:04.493Z,49.90
2018-04-07T21:05:32.044Z,49.70
2018-04-07T21:07:59.481Z,50.20
2018-04-07T21:10:26.926Z,50.60
2018-04-07T21:12:55.134Z,50.70
2018-04-07T21:15:22.590Z,50.70
2018-04-07T21:17:50.031Z,51.10
2018-04-07T21:20:17.472Z,50.70
2018-04-07T21:22:45.776Z,51.20
2018-04-07T21:25:13.194Z,51.20
2018-04-07T21:27:41.426Z,51.40
2018-04-07T21:30:08.877Z,51.40
2018-04-07T21:32:36.328Z,51.80
2018-04-07T21:35:03.743Z,52.00
2018-04-07T21:37:31.955Z,52.40
2018-04-07T21:39:59.380Z,52.30
2018-04-07T21:42:26.819Z,52.50
2018-04-07T21:44:54.265Z,53.00
2018-04-07T21:47:21.702Z,53.20
2018-04-07T21:49:49.234Z,53.70
2018-04-07T21:52:16.663Z,53.70
2018-04-07T21:54:44.883Z,54.30
2018-04-07T21:57:12.318Z,54.20
2018-04-07T21:59:39.745Z,54.40
2018-04-07T22:02:07.938Z,54.70
2018-04-07T22:04:35.386Z,54.70
2018-04-07T22:07:02.818Z,55.30
2018-04-07T22:09:31.279Z,55.40
2018-04-07T22:11:58.725Z,55.20
2018-04-07T22:14:27.218Z,55.70
2018-04-07T22:16:54.740Z,55.70
2018-04-07T22:19:22.172Z,55.80
2018-04-07T22:21:50.387Z,55.90
2018-04-07T22:24:17.826Z,55.90
2018-04-07T22:26:45.286Z,56.20
2018-04-07T22:29:12.727Z,56.30
2018-04-07T22:31:40.162Z,56.50
2018-04-07T22:34:08.371Z,56.50
2018-04-07T22:36:35.814Z,56.30
2018-04-07T22:39:03.243Z,56.60
2018-04-07T22:41:31.457Z,57.40
2018-04-07T22:43:59.025Z,56.80
2018-04-07T22:46:26.458Z,57.00
2018-04-07T22:48:53.895Z,57.10
2018-04-07T22:51:22.105Z,57.60
2018-04-07T22:53:49.558Z,57.50
2018-04-07T22:56:16.994Z,58.20
2018-04-07T22:58:45.192Z,57.70
2018-04-07T23:01:12.644Z,57.70
2018-04-07T23:03:40.107Z,57.70
2018-04-07T23:06:07.543Z,57.70
2018-04-07T23:08:35.001Z,57.80
2018-04-07T23:11:02.449Z,58.00
2018-04-07T23:13:30.649Z,58.10
2018-04-07T23:15:58.080Z,58.00
2018-04-07T23:18:26.285Z,58.60
2018-04-07T23:20:53.736Z,58.50
2018-04-07T23:23:21.173Z,58.50
2018-04-07T23:25:48.618Z,58.50
2018-04-07T23:28:17.045Z,58.90
2018-04-07T23:30:44.485Z,58.70
2018-04-07T23:33:11.910Z,58.90
2018-04-07T23:35:40.124Z,59.00
2018-04-07T23:38:07.557Z,59.00
2018-04-07T23:40:35.354Z,59.10
2018-04-07T23:43:02.781Z,59.20
2018-04-07T23:45:30.281Z,59.30
2018-04-07T23:47:57.722Z,59.30
2018-04-07T23:50:25.160Z,59.40
2018-04-07T23:52:52.613Z,59.70
2018-04-07T23:55:20.034Z,59.60
2018-04-07T23:57:48.239Z,59.90
